Grant Airport

CSX5 · Quebec, 加拿大

METAR的历史 CSX5 · Grant Airport

下面你可以看到过去几天的METARs。 选择年份以浏览从2007年开始的旧METAR。

2024年3月5日

时间 代码 天气 温度 能见度 天花板 METAR/SPECI
08:00
V
7 °C 9 mi 6.000 ft 150° 150° 8 kt METAR CYHU 051300Z AUTO 15008KT 9SM BKN060 07/04 A3016 RMK SLP216
07:00
V
5 °C 9 mi - 140° 140° 8 kt METAR CYHU 051200Z AUTO 14008KT 9SM SCT060 05/03 A3016 RMK SLP217
06:00
V
5 °C 9 mi - 140° 140° 8 kt METAR CYHU 051100Z AUTO 14008KT 9SM FEW060 05/03 A3016 RMK SLP215
05:00
V
6 °C 9 mi - 150° 150° 9 kt METAR CYHU 051000Z AUTO 15009KT 9SM FEW060 06/03 A3016 RMK SLP215
04:00
V
6 °C 9 mi - 150° 150° 9 kt METAR CYHU 050900Z AUTO 15009KT 9SM FEW060 06/04 A3016 RMK SLP216
03:00
V
7 °C 9 mi - 160° 160° 9 kt METAR CYHU 050800Z AUTO 16009KT 9SM SCT060 07/04 A3017 RMK SLP220
02:00
V
8 °C 9 mi 6.600 ft 160° 160° 9 - 15 kt METAR CYHU 050700Z AUTO 16009G15KT 9SM OVC066 08/04 A3019 RMK SLP227
01:00
V
7 °C 9 mi 6.000 ft 150° 150° 5 kt METAR CYHU 050600Z AUTO 15005KT 9SM OVC060 07/04 A3022 RMK SLP235
00:00
V
2 °C 9 mi 6.000 ft Var Var 2 kt METAR CYHU 050500Z AUTO VRB02KT 9SM OVC060 02/01 A3022 RMK SLP237

2024年3月4日

时间 代码 天气 温度 能见度 天花板 METAR/SPECI
23:00
V
3 °C 9 mi 5.500 ft 040° 040° 3 kt METAR CYHU 050400Z AUTO 04003KT 9SM BKN055 03/01 A3023 RMK SLP238
22:00
V
1 °C 9 mi 5.500 ft 360° 360° 0 kt METAR CYHU 050300Z AUTO 00000KT 9SM OVC055 01/M00 A3024 RMK SLP243
21:00
V
1 °C 9 mi - 340° 340° 4 kt METAR CYHU 050200Z AUTO 34004KT 9SM SCT055 01/M00 A3024 RMK SLP245
20:00
V
2 °C 9 mi - 040° 040° 3 kt METAR CYHU 050100Z AUTO 04003KT 9SM CLR 02/M00 A3024 RMK SLP244
19:00
V
3 °C 9 mi - 020° 020° 6 kt METAR CYHU 050000Z AUTO 02006KT 9SM CLR 03/01 A3025 RMK SLP247
18:00
V
4 °C 9 mi - 020° 020° 6 kt METAR CYHU 042300Z AUTO 02006KT 9SM CLR 04/02 A3024 RMK SLP244
17:00
V
8 °C 9 mi - 010° 010° 7 kt METAR CYHU 042200Z AUTO 01007KT 9SM CLR 08/05 A3024 RMK SLP243
16:00
V
9 °C 9 mi - 010° 010° 7 kt METAR CYHU 042100Z AUTO 01007KT 9SM CLR 09/06 A3025 RMK SLP246
15:00
V
9 °C 9 mi 5.000 ft 010° 010° 9 kt METAR CYHU 042000Z AUTO 01009KT 9SM OVC050 09/06 A3027 RMK SLP253
14:00
V
9 °C 9 mi 5.500 ft 030° 030° 6 kt METAR CYHU 041900Z AUTO 03006KT 9SM OVC055 09/07 A3029 RMK SLP262
13:11
V
9 °C 9 mi 5.500 ft 040° 040° 4 kt METAR CYHU 041811Z AUTO 04004KT 9SM FEW021 OVC055 09/07 A3030 RMK SLP263
13:00
M
9 °C 9 mi 2.100 ft 040° 040° 5 kt METAR CYHU 041800Z AUTO 04005KT 9SM BKN021 OVC055 09/07 A3030 RMK SLP265
12:00
M
8 °C 9 mi 1.400 ft 090° 090° 5 kt METAR CYHU 041700Z AUTO 09005KT 9SM BKN014 OVC055 08/06 A3033 RMK SLP274
11:00
M
7 °C 9 mi 1.400 ft 010° 010° 4 kt METAR CYHU 041600Z AUTO 01004KT 360V070 9SM OVC014 07/06 A3035 RMK SLP280
10:00
M
5 °C 6 mi 1.300 ft 070° 070° 6 kt METAR CYHU 041500Z AUTO 07006KT 6SM BR OVC013 05/04 A3035 RMK SLP282
10:01
M
5 °C 6 mi 1.300 ft 070° 070° 6 kt METAR CYHU 041501Z AUTO 07006KT 6SM BR SCT009 OVC013 05/04 A3035 RMK SLP282
09:37
M
4 °C 6 mi 1.100 ft 100° 100° 4 kt METAR CYHU 041437Z AUTO 10004KT 6SM BR OVC011 04/04 A3036 RMK SLP284
09:00
M
3 °C 5 mi 1.500 ft 050° 050° 3 kt METAR CYHU 041400Z AUTO 05003KT 5SM BR OVC015 03/03 A3037 RMK SLP288
08:00
M
2 °C 3 mi 1.500 ft 010° 010° 6 kt METAR CYHU 041300Z AUTO 01006KT 3SM BR OVC015 02/02 A3039 RMK SLP293
07:54
M
2 °C 3 mi 1.500 ft 010° 010° 5 kt METAR CYHU 041254Z AUTO 01005KT 3SM BR OVC015 02/02 A3039 RMK SLP293
07:00
I
1 °C 2 mi 1.900 ft 010° 010° 2 kt METAR CYHU 041200Z AUTO 01002KT 2SM BR OVC019 01/01 A3037 RMK SLP288
06:43
I
2 °C 2 mi 1.900 ft 010° 010° 3 kt METAR CYHU 041143Z AUTO 01003KT 2SM BR OVC019 02/01 A3037 RMK SLP288
06:24
I
1 °C 1¾ mi 1.900 ft 010° 010° 4 kt METAR CYHU 041124Z AUTO 01004KT 1 3/4SM BR OVC019 01/01 A3037 RMK SLP289
06:00
I
1 °C 2½ mi 2.100 ft 020° 020° 3 kt METAR CYHU 041100Z AUTO 02003KT 2 1/2SM BR OVC021 01/01 A3037 RMK SLP289
05:00
M
1 °C 4 mi 1.700 ft 010° 010° 3 kt METAR CYHU 041000Z AUTO 01003KT 4SM BR OVC017 01/00 A3036 RMK SLP285
04:00
M
0 °C 4 mi 1.800 ft 060° 060° 3 kt METAR CYHU 040900Z AUTO 06003KT 030V100 4SM BR OVC018 00/00 A3035 RMK SLP282
03:00
I
0 °C 2 mi 1.600 ft 270° 270° 4 kt METAR CYHU 040800Z AUTO 27004KT 270V330 2SM BR OVC016 00/M00 A3034 RMK SLP277
03:03
I
0 °C 3 mi 1.600 ft 270° 270° 4 kt METAR CYHU 040803Z AUTO 27004KT 260V330 3SM BR OVC016 00/M00 A3034 RMK SLP276
02:59
I
0 °C 2 mi 1.600 ft 270° 270° 4 kt METAR CYHU 040759Z AUTO 27004KT 220V330 2SM BR OVC016 00/M00 A3034 RMK SLP277
02:28
L
0 °C ⅜ mi 1.800 ft 030° 030° 3 kt METAR CYHU 040728Z AUTO 03003KT 3/8SM R24R/3000FT/N FZFG SCT002 OVC018 M00/M00 A3034 RMK SLP278
02:00
L
-1 °C ⅜ mi 200 ft 360° 360° 3 kt METAR CYHU 040700Z AUTO 36003KT 3/8SM R24R/P6000FT/U FZFG BKN002 OVC018 M01/M01 A3034 RMK SLP278
01:56
L
-1 °C ⅜ mi 200 ft 010° 010° 3 kt METAR CYHU 040656Z AUTO 01003KT 3/8SM R24R/P6000FT/D FZFG VV002 M01/M01 A3034 RMK SLP278
01:00
L
0 °C ⅛ mi 200 ft 110° 110° 2 kt METAR CYHU 040600Z AUTO 11002KT 1/8SM R24R/1200V1800FT/ FZFG VV002 M00/M00 A3034 RMK SLP279
00:51
L
0 °C ⅛ mi 200 ft 360° 360° 0 kt METAR CYHU 040551Z AUTO 00000KT 1/8SM R24R/1200FT/N FZFG VV002 M00/M00 A3034 RMK SLP277
00:44
L
0 °C ⅛ mi 100 ft 120° 120° 2 kt METAR CYHU 040544Z AUTO 12002KT 1/8SM R24R/1200FT/N FZFG VV001 M00/M00 A3034 RMK SLP277
00:00
L
0 °C ⅛ mi 100 ft 150° 150° 3 kt METAR CYHU 040500Z AUTO 15003KT 1/8SM R24R/1200FT/N FG VV001 00/00 A3033 RMK SLP274

2024年3月3日

时间 代码 天气 温度 能见度 天花板 METAR/SPECI
23:00
L
1 °C ⅛ mi 100 ft 180° 180° 3 kt METAR CYHU 040400Z AUTO 18003KT 1/8SM R24R/1000FT/N FG VV001 01/01 A3032 RMK SLP271
22:35
L
1 °C ⅜ mi 100 ft 200° 200° 4 kt METAR CYHU 040335Z AUTO 20004KT 120V210 3/8SM R24R/2200FT/N FG BKN001 01/M00 A3031 RMK SLP269
22:31
L
0 °C 1¾ mi 100 ft 190° 190° 3 kt METAR CYHU 040331Z AUTO 19003KT 120V200 1 3/4SM BR BKN001 00/M00 A3031 RMK SLP269
22:23
L
1 °C 4 mi 100 ft 360° 360° 0 kt METAR CYHU 040323Z AUTO 00000KT 4SM BR BKN001 01/00 A3031 RMK SLP269
22:15
M
1 °C 4 mi - 360° 360° 0 kt METAR CYHU 040315Z AUTO 00000KT 4SM BR FEW001 01/M00 A3031 RMK SLP269
22:00
V
2 °C 6 mi - 190° 190° 3 kt METAR CYHU 040300Z AUTO 19003KT 6SM BR CLR 02/01 A3031 RMK SLP269
22:03
V
2 °C 5 mi - 210° 210° 2 kt METAR CYHU 040303Z AUTO 21002KT 5SM BR CLR 02/01 A3032 RMK SLP270
21:00
V
2 °C 9 mi - 170° 170° 2 kt METAR CYHU 040200Z AUTO 17002KT 9SM CLR 02/01 A3031 RMK SLP266
20:00
V
3 °C 9 mi 5.500 ft Var Var 2 kt METAR CYHU 040100Z AUTO VRB02KT 9SM BKN055 03/01 A3030 RMK SLP263
19:00
V
4 °C 9 mi - 180° 180° 2 kt METAR CYHU 040000Z AUTO 18002KT 9SM FEW055 04/02 A3028 RMK SLP259
18:00
V
5 °C 9 mi 5.500 ft 100° 100° 2 kt METAR CYHU 032300Z AUTO 10002KT 9SM OVC055 05/02 A3028 RMK SLP256
17:00
V
7 °C 9 mi 5.500 ft 040° 040° 3 kt METAR CYHU 032200Z AUTO 04003KT 9SM OVC055 07/03 A3026 RMK SLP249
16:00
V
8 °C 9 mi 5.500 ft 010° 010° 6 kt METAR CYHU 032100Z AUTO 01006KT 9SM OVC055 08/03 A3025 RMK SLP246
15:00
V
8 °C 9 mi 5.500 ft 360° 360° 5 kt METAR CYHU 032000Z AUTO 36005KT 9SM OVC055 08/04 A3026 RMK SLP249
14:00
V
7 °C 9 mi 5.500 ft 030° 030° 3 kt METAR CYHU 031900Z AUTO 03003KT 360V060 9SM OVC055 07/03 A3026 RMK SLP250
13:00
V
6 °C 9 mi 5.500 ft 350° 350° 5 kt METAR CYHU 031800Z AUTO 35005KT 9SM OVC055 06/04 A3028 RMK SLP258
12:38
V
6 °C 9 mi 5.500 ft 320° 320° 6 kt METAR CYHU 031738Z AUTO 32006KT 9SM SCT009 SCT028 OVC055 06/05 A3028 RMK SLP258
12:00
I
6 °C 9 mi 700 ft 010° 010° 6 kt METAR CYHU 031700Z AUTO 01006KT 9SM OVC007 06/05 A3028 RMK SLP258
11:51
I
6 °C 8 mi 700 ft 360° 360° 6 kt METAR CYHU 031651Z AUTO 36006KT 8SM OVC007 06/05 A3028 RMK SLP257
11:32
I
5 °C 6 mi 500 ft 350° 350° 6 kt METAR CYHU 031632Z AUTO 35006KT 6SM BR OVC005 05/05 A3028 RMK SLP257
11:00
L
5 °C 4 mi 300 ft 010° 010° 6 kt METAR CYHU 031600Z AUTO 01006KT 4SM BR OVC003 05/04 A3028 RMK SLP257
10:25
L
4 °C 3 mi 300 ft 350° 350° 6 kt METAR CYHU 031525Z AUTO 35006KT 3SM BR OVC003 04/04 A3027 RMK SLP255
10:00
L
4 °C 2 mi 300 ft 360° 360° 5 kt METAR CYHU 031500Z AUTO 36005KT 2SM BR OVC003 04/04 A3027 RMK SLP255
09:58
L
4 °C 2 mi 300 ft 010° 010° 6 kt METAR CYHU 031458Z AUTO 01006KT 2SM BR OVC003 04/04 A3027 RMK SLP254
09:00
L
3 °C 1¼ mi 300 ft 360° 360° 7 kt METAR CYHU 031400Z AUTO 36007KT 1 1/4SM BR OVC003 03/03 A3026 RMK SLP251
08:00
L
2 °C ¾ mi 300 ft 010° 010° 5 kt METAR CYHU 031300Z AUTO 01005KT 3/4SM R24R/4000V5500FT/ BR OVC003 02/02 A3026 RMK SLP249
07:00
L
2 °C 1¼ mi 300 ft 360° 360° 8 kt METAR CYHU 031200Z AUTO 36008KT 1 1/4SM BR OVC003 02/02 A3024 RMK SLP243
06:00
L
2 °C 1¼ mi 300 ft 360° 360° 7 kt METAR CYHU 031100Z AUTO 36007KT 1 1/4SM BR OVC003 02/02 A3023 RMK SLP239
05:15
L
2 °C ⅝ mi 300 ft 360° 360° 7 kt METAR CYHU 031015Z AUTO 36007KT 5/8SM R24R/4500FT/D BR VV003 02/02 A3021 RMK SLP234
05:00
L
2 °C ⅜ mi 300 ft 360° 360° 6 kt METAR CYHU 031000Z AUTO 36006KT 3/8SM R24R/4000FT/U -RA FG VV003 02/02 A3021 RMK SLP232
05:03
L
2 °C ½ mi 300 ft 010° 010° 6 kt METAR CYHU 031003Z AUTO 01006KT 1/2SM R24R/4000FT/U -RA FG VV003 02/02 A3021 RMK SLP232
04:28
L
2 °C ⅜ mi 200 ft 340° 340° 6 kt METAR CYHU 030928Z AUTO 34006KT 3/8SM R24R/2600FT/N -RA FG VV002 02/02 A3021 RMK SLP234
04:00
L
2 °C ⅜ mi 300 ft 330° 330° 5 kt METAR CYHU 030900Z AUTO 33005KT 3/8SM R24R/2600FT/N FG VV003 02/01 A3021 RMK SLP232
03:00
L
2 °C ⅜ mi 300 ft 360° 360° 6 kt METAR CYHU 030800Z AUTO 36006KT 3/8SM R24R/3000FT/N FG VV003 02/02 A3019 RMK SLP227
02:34
L
2 °C ⅜ mi 300 ft 020° 020° 4 kt METAR CYHU 030734Z AUTO 02004KT 3/8SM R24R/3500FT/N FG VV003 02/02 A3019 RMK SLP227
02:00
L
2 °C ¾ mi 300 ft 010° 010° 5 kt METAR CYHU 030700Z AUTO 01005KT 3/4SM R24R/P6000FT/D BR OVC003 02/02 A3020 RMK SLP229
01:00
L
3 °C 1¾ mi 300 ft 360° 360° 6 kt METAR CYHU 030600Z AUTO 36006KT 1 3/4SM BR OVC003 03/02 A3021 RMK SLP235